createdAt,value
2023-04-19T00:00:50.897Z,7.01
2023-04-19T00:01:51.017Z,7.29
2023-04-19T00:02:51.055Z,8.22
2023-04-19T00:03:51.146Z,7.94
2023-04-19T00:04:51.085Z,6.89
2023-04-19T00:05:50.978Z,7.09
2023-04-19T00:06:50.962Z,6.60
2023-04-19T00:07:51.084Z,7.02
2023-04-19T00:08:51.105Z,7.53
2023-04-19T00:09:51.163Z,7.33
2023-04-19T00:10:51.219Z,6.59
2023-04-19T00:11:51.147Z,7.35
2023-04-19T00:12:51.229Z,6.94
2023-04-19T00:13:51.214Z,7.17
2023-04-19T00:14:51.209Z,7.20
2023-04-19T00:15:51.216Z,6.31
2023-04-19T00:16:51.246Z,7.12
2023-04-19T00:17:51.279Z,6.78
2023-04-19T00:18:51.256Z,6.64
2023-04-19T00:19:51.281Z,6.87
2023-04-19T00:20:51.258Z,7.05
2023-04-19T00:21:51.294Z,7.99
2023-04-19T00:22:51.288Z,7.90
2023-04-19T00:23:51.265Z,7.38
2023-04-19T00:24:51.316Z,7.06
2023-04-19T00:25:51.402Z,6.34
2023-04-19T00:26:51.293Z,7.46
2023-04-19T00:27:51.332Z,8.32
2023-04-19T00:28:51.342Z,8.03
2023-04-19T00:29:51.306Z,7.37
2023-04-19T00:30:51.380Z,7.29
2023-04-19T00:31:51.335Z,7.78
2023-04-19T00:32:51.444Z,7.47
2023-04-19T00:33:51.384Z,7.50
2023-04-19T00:34:51.390Z,7.11
2023-04-19T00:35:51.380Z,7.44
2023-04-19T00:36:51.318Z,6.58
2023-04-19T00:37:51.383Z,6.49
2023-04-19T00:38:51.411Z,7.20
2023-04-19T00:39:51.406Z,6.69
2023-04-19T00:40:51.323Z,7.06
2023-04-19T00:41:51.384Z,8.16
2023-04-19T00:42:51.390Z,6.92
2023-04-19T00:43:51.358Z,7.26
2023-04-19T00:44:51.374Z,6.96
2023-04-19T00:45:51.464Z,6.75
2023-04-19T00:46:51.466Z,6.77
2023-04-19T00:47:51.442Z,7.68
2023-04-19T00:48:51.393Z,7.06
2023-04-19T00:49:51.456Z,7.48
2023-04-19T00:50:51.438Z,7.32
2023-04-19T00:51:51.458Z,6.86
2023-04-19T00:52:51.517Z,6.65
2023-04-19T00:53:51.505Z,6.65
2023-04-19T00:54:51.470Z,6.78
2023-04-19T00:55:51.522Z,8.02
2023-04-19T00:56:51.530Z,7.14
2023-04-19T00:57:51.563Z,7.87
2023-04-19T00:58:51.566Z,7.38
2023-04-19T00:59:51.626Z,6.44
2023-04-19T01:00:51.654Z,7.50
2023-04-19T01:01:51.724Z,6.24
2023-04-19T01:02:51.703Z,7.00
2023-04-19T01:03:51.780Z,7.28
2023-04-19T01:04:51.680Z,7.10
2023-04-19T01:05:51.643Z,6.88
2023-04-19T01:06:51.701Z,6.86
2023-04-19T01:07:51.672Z,7.15
2023-04-19T01:08:51.663Z,7.49
2023-04-19T01:09:51.676Z,7.37
2023-04-19T01:10:51.659Z,7.63
2023-04-19T01:11:51.696Z,7.32
2023-04-19T01:12:51.742Z,7.99
2023-04-19T01:13:51.715Z,7.41
2023-04-19T01:14:51.709Z,7.31
2023-04-19T01:15:51.811Z,6.63
2023-04-19T01:16:51.737Z,7.14
2023-04-19T01:17:51.751Z,7.39
2023-04-19T01:18:51.780Z,7.72
2023-04-19T01:19:51.766Z,6.12
2023-04-19T01:20:51.754Z,6.59
2023-04-19T01:21:51.779Z,8.18
2023-04-19T01:22:51.821Z,7.19
2023-04-19T01:23:51.823Z,6.64
2023-04-19T01:24:51.923Z,7.15
2023-04-19T01:25:52.015Z,7.03
2023-04-19T01:26:51.996Z,7.22
2023-04-19T01:27:52.016Z,7.02
2023-04-19T01:28:52.027Z,7.18
2023-04-19T01:29:52.000Z,7.74
2023-04-19T01:30:52.046Z,7.15
2023-04-19T01:31:52.012Z,7.91
2023-04-19T01:32:52.050Z,7.78
2023-04-19T01:33:52.005Z,7.36
2023-04-19T01:34:52.020Z,7.74
2023-04-19T01:35:52.043Z,6.67
2023-04-19T01:36:52.105Z,6.76
2023-04-19T01:37:52.238Z,7.94
2023-04-19T01:38:52.169Z,8.43
2023-04-19T01:39:52.241Z,7.09
2023-04-19T01:40:52.333Z,7.95
2023-04-19T01:41:52.378Z,7.68
2023-04-19T01:42:52.433Z,7.47
2023-04-19T01:43:52.473Z,7.97
2023-04-19T01:44:52.526Z,7.50
2023-04-19T01:45:52.545Z,7.37
2023-04-19T01:46:52.732Z,7.47
2023-04-19T01:47:52.741Z,7.36
2023-04-19T01:48:52.617Z,7.07
2023-04-19T01:49:52.636Z,7.30
2023-04-19T01:50:52.669Z,7.59
2023-04-19T01:51:52.634Z,8.36
2023-04-19T01:52:52.704Z,8.22
2023-04-19T01:53:52.705Z,7.64
2023-04-19T01:54:52.756Z,7.67
2023-04-19T01:55:52.863Z,7.12
2023-04-19T01:56:52.895Z,7.30
2023-04-19T01:57:54.611Z,7.70
2023-04-19T01:58:53.004Z,6.65
2023-04-19T01:59:53.112Z,6.69
2023-04-19T02:00:53.164Z,7.13
2023-04-19T02:01:53.197Z,7.18
2023-04-19T02:02:53.359Z,6.70
2023-04-19T02:03:53.320Z,7.03
2023-04-19T02:04:53.267Z,7.04
2023-04-19T02:05:53.364Z,6.28
2023-04-19T02:06:53.413Z,7.60
2023-04-19T02:07:53.773Z,7.82
2023-04-19T02:08:53.450Z,7.57
2023-04-19T02:09:53.486Z,6.71
2023-04-19T02:10:53.490Z,6.62
2023-04-19T02:11:53.445Z,7.41
2023-04-19T02:12:53.443Z,6.64
2023-04-19T02:13:53.442Z,7.18
2023-04-19T02:14:53.493Z,6.80
2023-04-19T02:15:53.470Z,6.67
2023-04-19T02:16:53.557Z,5.95
2023-04-19T02:17:53.581Z,7.23
2023-04-19T02:18:53.582Z,6.73
2023-04-19T02:19:53.568Z,6.94
2023-04-19T02:20:53.612Z,6.83
2023-04-19T02:21:53.692Z,7.49
2023-04-19T02:22:53.768Z,7.36
2023-04-19T02:23:53.786Z,6.91
2023-04-19T02:24:53.854Z,6.88
2023-04-19T02:25:53.933Z,7.66
2023-04-19T02:26:53.994Z,7.25
2023-04-19T02:27:54.092Z,6.88
2023-04-19T02:28:54.132Z,6.92
2023-04-19T02:29:54.164Z,7.25
2023-04-19T02:30:54.251Z,8.03
2023-04-19T02:31:54.289Z,6.83
2023-04-19T02:32:54.388Z,7.22
2023-04-19T02:33:54.370Z,6.92
2023-04-19T02:34:54.451Z,7.55
2023-04-19T02:35:54.493Z,7.30
2023-04-19T02:36:54.514Z,7.91
2023-04-19T02:37:54.695Z,7.39
2023-04-19T02:38:54.652Z,7.40
2023-04-19T02:39:54.691Z,6.92
2023-04-19T02:40:54.743Z,6.21
2023-04-19T02:41:54.836Z,7.01
2023-04-19T02:42:54.870Z,6.77
2023-04-19T02:43:54.854Z,7.05
2023-04-19T02:44:54.929Z,7.02
2023-04-19T02:45:54.952Z,6.82
2023-04-19T02:46:54.985Z,7.20
2023-04-19T02:47:55.077Z,6.86
2023-04-19T02:48:55.035Z,7.02
2023-04-19T02:49:55.111Z,6.53
2023-04-19T02:50:55.159Z,6.69
2023-04-19T02:51:55.206Z,6.45
2023-04-19T02:52:55.268Z,7.31
2023-04-19T02:53:55.313Z,6.58
2023-04-19T02:54:55.338Z,6.84
2023-04-19T02:55:55.397Z,6.57
2023-04-19T02:56:55.440Z,7.54
2023-04-19T02:57:55.453Z,7.77
2023-04-19T02:58:55.454Z,7.74
2023-04-19T02:59:55.504Z,7.24
2023-04-19T03:00:55.591Z,6.87
2023-04-19T03:01:55.762Z,6.11
2023-04-19T03:02:55.832Z,6.56
2023-04-19T03:03:55.853Z,5.87
2023-04-19T03:04:55.700Z,6.98
2023-04-19T03:05:55.718Z,7.31
2023-04-19T03:06:55.799Z,6.97
2023-04-19T03:07:55.838Z,7.08
2023-04-19T03:08:55.916Z,7.64
2023-04-19T03:09:55.948Z,7.24
2023-04-19T03:10:55.983Z,7.08
2023-04-19T03:11:56.073Z,8.30
2023-04-19T03:12:56.106Z,7.57
2023-04-19T03:13:56.138Z,7.04
2023-04-19T03:14:56.106Z,7.63
2023-04-19T03:15:56.131Z,7.23
2023-04-19T03:16:56.174Z,7.17
2023-04-19T03:17:56.125Z,6.81
2023-04-19T03:18:56.107Z,5.93
2023-04-19T03:19:56.107Z,6.93
2023-04-19T03:20:56.230Z,7.26
2023-04-19T03:21:56.144Z,6.78
2023-04-19T03:22:56.140Z,6.62
2023-04-19T03:23:56.186Z,7.07
2023-04-19T03:24:56.222Z,7.39
2023-04-19T03:25:56.304Z,7.54
2023-04-19T03:26:56.339Z,7.46
2023-04-19T03:27:56.382Z,7.50
2023-04-19T03:28:56.436Z,6.39
2023-04-19T03:29:56.512Z,7.34
2023-04-19T03:30:56.554Z,7.15
2023-04-19T03:31:56.596Z,6.48
2023-04-19T03:32:56.639Z,6.51
2023-04-19T03:33:56.681Z,7.58
2023-04-19T03:34:56.679Z,7.99
2023-04-19T03:35:56.712Z,7.02
2023-04-19T03:36:56.746Z,6.57
2023-04-19T03:37:56.803Z,7.17
2023-04-19T03:38:56.883Z,7.13
2023-04-19T03:39:56.861Z,7.92
2023-04-19T03:40:56.897Z,8.00
2023-04-19T03:41:56.930Z,7.30
2023-04-19T03:42:57.026Z,8.10
2023-04-19T03:43:56.982Z,6.82
2023-04-19T03:44:57.005Z,7.62
2023-04-19T03:45:57.076Z,6.60
2023-04-19T03:46:57.063Z,7.05
2023-04-19T03:47:57.177Z,6.68
2023-04-19T03:48:57.117Z,7.48
2023-04-19T03:49:57.155Z,7.19
2023-04-19T03:50:57.155Z,6.99
2023-04-19T03:51:57.206Z,6.66
2023-04-19T03:52:57.241Z,6.63
2023-04-19T03:53:57.230Z,7.54
2023-04-19T03:54:57.277Z,6.77
2023-04-19T03:55:57.292Z,6.60
2023-04-19T03:56:57.357Z,7.24
2023-04-19T03:57:57.345Z,7.42
2023-04-19T03:58:57.359Z,7.08
2023-04-19T03:59:57.414Z,6.64
2023-04-19T04:00:57.433Z,6.86
2023-04-19T04:01:57.508Z,7.43
2023-04-19T04:02:57.710Z,7.55
2023-04-19T04:03:57.817Z,7.42
2023-04-19T04:04:57.661Z,7.33
2023-04-19T04:05:57.619Z,7.07
2023-04-19T04:06:57.723Z,7.67
2023-04-19T04:07:57.761Z,7.15
2023-04-19T04:08:57.822Z,7.30
2023-04-19T04:09:57.853Z,7.59
2023-04-19T04:10:57.889Z,6.37
2023-04-19T04:11:57.912Z,7.10
2023-04-19T04:12:57.974Z,6.49
2023-04-19T04:13:57.980Z,7.51
2023-04-19T04:14:58.032Z,7.39
2023-04-19T04:15:58.107Z,7.71
2023-04-19T04:16:58.151Z,7.16
2023-04-19T04:17:58.265Z,7.20
2023-04-19T04:18:58.210Z,7.40
2023-04-19T04:19:58.262Z,7.30
2023-04-19T04:20:58.290Z,7.76
2023-04-19T04:21:58.409Z,7.83
2023-04-19T04:22:58.420Z,7.25
2023-04-19T04:23:58.410Z,7.55
2023-04-19T04:24:58.507Z,7.70
2023-04-19T04:25:58.564Z,7.35
2023-04-19T04:26:58.615Z,7.36
2023-04-19T04:27:58.758Z,8.21
2023-04-19T04:28:58.736Z,9.75
2023-04-19T04:29:58.765Z,8.47
2023-04-19T04:30:58.811Z,6.92
2023-04-19T04:31:58.930Z,7.30
2023-04-19T04:32:58.973Z,7.15
2023-04-19T04:33:58.937Z,7.05
2023-04-19T04:34:58.954Z,6.47
2023-04-19T04:35:59.024Z,6.75
2023-04-19T04:36:59.066Z,6.98
2023-04-19T04:37:59.141Z,6.86
2023-04-19T04:38:59.200Z,6.93
2023-04-19T04:39:59.222Z,7.28
2023-04-19T04:40:59.321Z,7.42
2023-04-19T04:41:59.317Z,7.04
2023-04-19T04:42:59.401Z,7.47
2023-04-19T04:44:12.115Z,6.93
2023-04-19T04:45:00.319Z,6.39
2023-04-19T04:45:59.364Z,6.98
2023-04-19T04:46:59.355Z,6.74
2023-04-19T04:47:59.335Z,6.86
2023-04-19T04:48:59.322Z,6.89
2023-04-19T04:49:59.294Z,7.10
2023-04-19T04:50:59.273Z,6.95
2023-04-19T04:51:59.289Z,6.89
2023-04-19T04:52:59.325Z,7.18
2023-04-19T04:53:59.249Z,7.79
2023-04-19T04:54:59.290Z,7.82
2023-04-19T04:55:59.274Z,7.33
2023-04-19T04:56:59.252Z,8.12
2023-04-19T04:57:59.252Z,7.49
2023-04-19T04:58:59.232Z,7.63
2023-04-19T04:59:59.235Z,8.13
2023-04-19T05:01:06.993Z,7.40
2023-04-19T05:01:59.312Z,7.45
2023-04-19T05:02:59.430Z,7.44
2023-04-19T05:03:59.323Z,8.21
2023-04-19T05:04:59.273Z,7.24
2023-04-19T05:05:59.237Z,7.69
2023-04-19T05:06:59.314Z,7.86
2023-04-19T05:07:59.246Z,7.77
2023-04-19T05:08:59.232Z,7.26
2023-04-19T05:09:59.231Z,7.79
2023-04-19T05:10:59.261Z,23.73
2023-04-19T05:11:59.252Z,8.98
2023-04-19T05:12:59.223Z,8.04
2023-04-19T05:14:00.069Z,8.01
2023-04-19T05:14:59.176Z,8.65
2023-04-19T05:15:59.174Z,8.15
2023-04-19T05:16:59.279Z,7.98
2023-04-19T05:17:59.323Z,8.68
2023-04-19T05:18:59.179Z,8.78
2023-04-19T05:19:59.218Z,7.73
2023-04-19T05:20:59.138Z,8.07
2023-04-19T05:21:59.228Z,9.67
2023-04-19T05:22:59.222Z,9.01
2023-04-19T05:23:59.186Z,9.37
2023-04-19T05:24:59.327Z,8.80
2023-04-19T05:25:59.167Z,8.55
2023-04-19T05:26:59.192Z,8.70
2023-04-19T05:27:59.255Z,9.02
2023-04-19T05:28:59.257Z,9.24
2023-04-19T05:29:59.234Z,8.97
2023-04-19T05:30:59.405Z,8.73
2023-04-19T05:31:59.303Z,9.00
2023-04-19T05:32:59.992Z,7.84
2023-04-19T05:33:59.510Z,8.36
2023-04-19T05:34:59.456Z,8.39
2023-04-19T05:35:59.567Z,7.24
2023-04-19T05:36:59.592Z,7.79
2023-04-19T05:37:59.734Z,7.90
2023-04-19T05:38:59.557Z,8.72
2023-04-19T05:39:59.437Z,7.77
2023-04-19T05:40:59.457Z,8.80
2023-04-19T05:42:00.524Z,9.43
2023-04-19T05:43:00.103Z,8.76
2023-04-19T05:43:59.743Z,7.67
2023-04-19T05:44:59.970Z,7.65
2023-04-19T05:47:19.317Z,9.88
2023-04-19T05:48:19.132Z,9.16
2023-04-19T05:49:19.166Z,8.97
2023-04-19T05:50:19.142Z,8.38
2023-04-19T05:51:19.144Z,8.84
2023-04-19T05:52:19.068Z,8.83
2023-04-19T05:53:19.174Z,9.43
2023-04-19T05:54:19.312Z,8.94
2023-04-19T05:55:19.111Z,9.72
2023-04-19T05:56:19.088Z,9.68
2023-04-19T05:57:19.054Z,8.74
2023-04-19T05:58:19.115Z,9.01
2023-04-19T05:59:19.009Z,9.52
2023-04-19T06:00:19.037Z,9.45
2023-04-19T06:01:19.069Z,8.47
2023-04-19T06:02:19.241Z,9.07
2023-04-19T06:03:19.187Z,8.71
2023-04-19T06:04:19.553Z,8.61
2023-04-19T06:05:19.169Z,9.31
2023-04-19T06:06:19.033Z,15.62
2023-04-19T06:07:31.090Z,10.09
2023-04-19T06:08:19.938Z,9.18
2023-04-19T06:09:19.031Z,9.21
2023-04-19T06:10:18.995Z,9.04
2023-04-19T06:11:24.918Z,8.93
2023-04-19T06:12:20.022Z,9.60
2023-04-19T06:13:19.017Z,9.70
2023-04-19T06:14:19.343Z,9.91
2023-04-19T06:15:18.926Z,9.67
2023-04-19T06:16:18.992Z,9.33
2023-04-19T06:17:18.887Z,9.49
2023-04-19T06:18:20.334Z,10.22
2023-04-19T06:19:19.240Z,9.43
2023-04-19T06:20:18.934Z,9.87
2023-04-19T06:21:19.014Z,11.19
2023-04-19T06:22:18.974Z,10.13
2023-04-19T06:23:19.095Z,10.01
2023-04-19T06:24:19.107Z,10.58
2023-04-19T06:25:19.180Z,10.39
2023-04-19T06:26:19.208Z,10.09
2023-04-19T06:27:19.175Z,10.22
2023-04-19T06:28:19.189Z,9.39
2023-04-19T06:29:19.267Z,10.07
2023-04-19T06:30:19.239Z,10.70
2023-04-19T06:31:19.346Z,9.59
2023-04-19T06:32:19.388Z,10.13
2023-04-19T06:33:19.366Z,9.23
2023-04-19T06:34:19.643Z,9.83
2023-04-19T06:35:19.258Z,10.93
2023-04-19T06:36:19.301Z,9.49
2023-04-19T06:37:19.265Z,10.69
2023-04-19T06:38:19.267Z,10.09
2023-04-19T06:39:19.789Z,10.69
2023-04-19T06:40:19.320Z,10.41
2023-04-19T06:41:19.279Z,10.93
2023-04-19T06:42:19.203Z,10.84
2023-04-19T06:43:19.304Z,10.45
2023-04-19T06:44:19.247Z,9.77
2023-04-19T06:45:19.194Z,10.79
2023-04-19T06:46:19.245Z,10.11
2023-04-19T06:47:19.186Z,10.82
2023-04-19T06:48:19.212Z,9.27
2023-04-19T06:49:19.307Z,9.79
2023-04-19T06:50:19.317Z,9.91
2023-04-19T06:51:19.350Z,9.74
2023-04-19T06:52:19.737Z,10.52
2023-04-19T06:53:19.361Z,10.77
2023-04-19T06:54:20.014Z,9.79
2023-04-19T06:55:20.208Z,10.58
2023-04-19T06:56:19.554Z,10.80
2023-04-19T06:57:19.553Z,10.28
2023-04-19T06:58:19.671Z,10.47
2023-04-19T06:59:19.737Z,11.00
2023-04-19T07:00:19.681Z,11.09
2023-04-19T07:01:19.684Z,10.84
2023-04-19T07:02:19.818Z,10.30
2023-04-19T07:03:19.865Z,11.41
2023-04-19T07:04:19.958Z,10.89
2023-04-19T07:05:19.841Z,9.99
2023-04-19T07:06:19.875Z,10.54
2023-04-19T07:07:19.865Z,10.98
2023-04-19T07:08:19.861Z,11.55
2023-04-19T07:09:19.903Z,10.95
2023-04-19T07:10:19.965Z,11.79
2023-04-19T07:11:21.227Z,11.98
2023-04-19T07:12:20.214Z,10.73
2023-04-19T07:13:20.218Z,10.46
2023-04-19T07:14:20.236Z,10.62
2023-04-19T07:15:20.371Z,9.58
2023-04-19T07:16:20.705Z,10.34
2023-04-19T07:17:20.451Z,10.92
2023-04-19T07:18:20.466Z,11.12
2023-04-19T07:19:20.479Z,11.30
2023-04-19T07:20:20.583Z,10.95
2023-04-19T07:21:20.587Z,11.63
2023-04-19T07:22:20.701Z,11.63
2023-04-19T07:23:20.693Z,12.22
2023-04-19T07:24:20.909Z,10.16
2023-04-19T07:25:20.725Z,9.55
2023-04-19T07:26:20.819Z,11.02
2023-04-19T07:27:21.234Z,10.57
2023-04-19T07:28:20.852Z,9.87
2023-04-19T07:29:21.258Z,10.15
2023-04-19T07:30:20.835Z,11.08
2023-04-19T07:31:20.846Z,10.08
2023-04-19T07:32:20.927Z,9.67
2023-04-19T07:33:20.932Z,10.30
2023-04-19T07:34:20.925Z,9.70
2023-04-19T07:35:21.129Z,10.58
2023-04-19T07:36:20.992Z,9.54
2023-04-19T07:37:21.058Z,10.55
2023-04-19T07:38:21.117Z,10.02
2023-04-19T07:39:21.069Z,10.51
2023-04-19T07:40:21.168Z,11.61
2023-04-19T07:41:21.071Z,10.54
2023-04-19T07:42:21.079Z,9.91
2023-04-19T07:43:21.077Z,10.32
2023-04-19T07:44:21.196Z,10.77
2023-04-19T07:45:21.098Z,10.95
2023-04-19T07:46:21.091Z,10.19
2023-04-19T07:47:21.123Z,11.44
2023-04-19T07:48:21.233Z,11.88
2023-04-19T07:49:21.192Z,10.81
2023-04-19T07:50:21.944Z,10.89
2023-04-19T07:51:21.131Z,10.87
2023-04-19T07:52:21.241Z,11.52
2023-04-19T07:53:21.293Z,11.87
2023-04-19T07:54:21.374Z,10.42
2023-04-19T07:55:21.365Z,10.65
2023-04-19T07:56:21.373Z,12.62
2023-04-19T07:57:21.449Z,14.36
2023-04-19T07:58:21.449Z,11.44
2023-04-19T07:59:21.530Z,11.53
2023-04-19T08:00:21.575Z,12.31
2023-04-19T08:01:21.554Z,11.14
2023-04-19T08:02:21.666Z,11.92
2023-04-19T08:03:21.625Z,12.05
2023-04-19T08:04:22.104Z,11.39
2023-04-19T08:05:21.750Z,10.95
2023-04-19T08:06:21.598Z,11.66
2023-04-19T08:07:21.597Z,10.44
2023-04-19T08:08:21.743Z,11.07
2023-04-19T08:09:21.691Z,10.98
2023-04-19T08:10:22.314Z,10.51
2023-04-19T08:11:21.782Z,10.71
2023-04-19T08:12:34.592Z,10.78
2023-04-19T08:13:22.768Z,10.69
2023-04-19T08:14:34.860Z,10.63
2023-04-19T08:17:26.681Z,11.35
2023-04-19T08:18:23.079Z,11.15
2023-04-19T08:19:22.000Z,11.38
2023-04-19T08:20:24.468Z,10.51
2023-04-19T08:21:26.049Z,10.95
2023-04-19T08:22:22.985Z,11.10
2023-04-19T08:24:41.538Z,12.61
2023-04-19T08:25:41.516Z,10.95
2023-04-19T08:26:41.463Z,10.21
2023-04-19T08:27:41.543Z,11.23
2023-04-19T08:28:41.463Z,10.77
2023-04-19T08:29:41.646Z,11.06
2023-04-19T08:30:41.505Z,10.37
2023-04-19T08:31:41.881Z,10.40
2023-04-19T08:32:41.546Z,10.47
2023-04-19T08:33:41.477Z,10.72
2023-04-19T08:34:41.426Z,9.63
2023-04-19T08:35:41.478Z,12.04
2023-04-19T08:36:51.562Z,10.93
2023-04-19T08:37:42.374Z,11.09
2023-04-19T08:38:44.736Z,11.04
2023-04-19T08:39:43.436Z,10.68
2023-04-19T08:40:41.366Z,10.07
2023-04-19T08:41:41.401Z,9.35
2023-04-19T08:42:41.353Z,10.05
2023-04-19T08:43:41.866Z,9.68
2023-04-19T08:44:49.232Z,9.79
2023-04-19T08:45:42.449Z,9.50
2023-04-19T08:46:41.317Z,9.69
2023-04-19T08:47:56.272Z,9.79
2023-04-19T08:48:42.331Z,10.26
2023-04-19T08:49:43.321Z,9.16
2023-04-19T08:50:55.920Z,9.98
2023-04-19T08:51:42.538Z,9.61
2023-04-19T08:52:54.178Z,8.73
2023-04-19T08:53:42.632Z,8.94
2023-04-19T08:54:41.515Z,9.47
2023-04-19T08:55:54.838Z,10.04
2023-04-19T08:56:43.068Z,10.66
2023-04-19T08:57:41.497Z,10.88
2023-04-19T08:59:42.516Z,9.20
2023-04-19T09:00:41.878Z,9.12
2023-04-19T09:01:43.725Z,9.41
2023-04-19T09:02:41.586Z,10.83
2023-04-19T09:03:51.605Z,10.86
2023-04-19T09:04:43.485Z,10.93
2023-04-19T09:05:41.659Z,10.71
2023-04-19T09:06:42.056Z,10.50
2023-04-19T09:07:41.561Z,8.90
2023-04-19T09:08:41.395Z,9.58
2023-04-19T09:09:51.932Z,9.00
2023-04-19T09:10:42.551Z,10.31
2023-04-19T09:11:41.585Z,10.16
2023-04-19T09:12:41.495Z,10.98
2023-04-19T09:13:41.400Z,9.92
2023-04-19T09:14:45.065Z,10.40
2023-04-19T09:15:41.425Z,9.73
2023-04-19T09:16:41.375Z,9.77
2023-04-19T09:17:41.452Z,9.48
2023-04-19T09:18:56.187Z,9.22
2023-04-19T09:19:42.454Z,9.21
2023-04-19T09:20:41.818Z,9.82
2023-04-19T09:21:41.441Z,9.96
2023-04-19T09:22:41.387Z,9.91
2023-04-19T09:23:41.370Z,9.56
2023-04-19T09:26:05.940Z,10.07
2023-04-19T09:26:42.755Z,9.08
2023-04-19T09:27:41.431Z,9.42
2023-04-19T09:28:41.291Z,9.27
2023-04-19T09:29:41.665Z,9.37
2023-04-19T09:30:58.275Z,9.16
2023-04-19T09:31:50.877Z,10.17
2023-04-19T09:32:42.328Z,8.96
2023-04-19T09:33:41.462Z,9.57
2023-04-19T09:34:41.631Z,10.35
2023-04-19T09:35:41.608Z,9.59
2023-04-19T09:36:41.254Z,8.94
2023-04-19T09:38:02.030Z,8.86
2023-04-19T09:38:42.316Z,9.16
2023-04-19T09:39:41.265Z,9.28
2023-04-19T09:40:41.572Z,9.33
2023-04-19T09:41:42.609Z,9.69
2023-04-19T09:42:58.756Z,8.86
2023-04-19T09:45:20.746Z,9.18
2023-04-19T09:45:42.338Z,9.98
2023-04-19T09:46:41.348Z,8.51
2023-04-19T09:47:41.359Z,9.48
2023-04-19T09:48:41.258Z,9.35
2023-04-19T09:49:48.549Z,10.13
2023-04-19T09:50:54.709Z,10.96
2023-04-19T09:51:42.594Z,9.57
2023-04-19T09:52:41.243Z,9.31
2023-04-19T09:53:41.276Z,10.03
2023-04-19T09:54:41.261Z,8.85
2023-04-19T09:55:52.435Z,9.14
2023-04-19T09:56:42.193Z,9.13
2023-04-19T09:57:41.239Z,8.82
2023-04-19T09:58:50.055Z,8.49
2023-04-19T09:59:42.273Z,7.91
2023-04-19T10:00:47.868Z,9.23
2023-04-19T10:01:42.674Z,8.21
2023-04-19T10:02:41.244Z,8.37
2023-04-19T10:03:41.467Z,8.21
2023-04-19T10:05:41.322Z,7.07
2023-04-19T10:07:42.173Z,9.00
2023-04-19T10:08:41.129Z,8.19
2023-04-19T10:09:51.785Z,9.06
2023-04-19T10:10:42.923Z,7.79
2023-04-19T10:11:42.975Z,7.95
2023-04-19T10:13:06.857Z,7.64
2023-04-19T10:13:42.065Z,7.40
2023-04-19T10:14:41.143Z,7.89
2023-04-19T10:15:50.165Z,7.36
2023-04-19T10:16:42.669Z,6.65
2023-04-19T10:17:41.096Z,7.79
2023-04-19T10:18:41.065Z,8.84
2023-04-19T10:19:41.119Z,8.22
2023-04-19T10:20:41.102Z,8.26
2023-04-19T10:21:41.145Z,7.94
2023-04-19T10:22:41.096Z,9.21
2023-04-19T10:23:41.061Z,8.75
2023-04-19T10:25:41.097Z,8.22
2023-04-19T10:26:41.155Z,9.08
2023-04-19T10:27:41.187Z,9.31
2023-04-19T10:28:41.238Z,9.17
2023-04-19T10:29:41.342Z,8.95
2023-04-19T10:30:41.401Z,8.00
2023-04-19T10:31:41.620Z,8.20
2023-04-19T10:32:41.405Z,8.36
2023-04-19T10:33:41.473Z,8.41
2023-04-19T10:34:41.449Z,8.19
2023-04-19T10:35:41.515Z,8.58
2023-04-19T10:36:41.628Z,7.45
2023-04-19T10:37:41.538Z,8.11
2023-04-19T10:38:41.571Z,8.05
2023-04-19T10:39:41.542Z,7.86
2023-04-19T10:40:41.660Z,7.68
2023-04-19T10:41:42.160Z,8.76
2023-04-19T10:42:41.665Z,7.16
2023-04-19T10:43:41.748Z,7.59
2023-04-19T10:44:41.763Z,7.09
2023-04-19T10:45:41.724Z,7.59
2023-04-19T10:46:41.890Z,8.26
2023-04-19T10:47:41.942Z,8.04
2023-04-19T10:48:41.848Z,7.63
2023-04-19T10:49:41.925Z,7.89
2023-04-19T10:50:41.959Z,7.71
2023-04-19T10:51:42.020Z,7.61
2023-04-19T10:52:42.038Z,7.49
2023-04-19T10:53:42.122Z,8.08
2023-04-19T10:54:42.104Z,7.56
2023-04-19T10:55:42.267Z,7.80
2023-04-19T10:56:42.172Z,8.13
2023-04-19T10:57:42.587Z,7.79
2023-04-19T10:58:42.215Z,8.59
2023-04-19T10:59:42.362Z,7.63
2023-04-19T11:00:42.343Z,6.97
2023-04-19T11:01:42.427Z,7.33
2023-04-19T11:02:42.750Z,6.60
2023-04-19T11:03:42.528Z,7.14
2023-04-19T11:04:42.581Z,6.81
2023-04-19T11:05:42.430Z,6.81
2023-04-19T11:06:42.466Z,7.10
2023-04-19T11:07:42.481Z,7.21
2023-04-19T11:08:42.502Z,6.72
2023-04-19T11:09:42.582Z,6.39
2023-04-19T11:10:42.618Z,6.44
2023-04-19T11:11:42.652Z,6.49
2023-04-19T11:12:43.149Z,6.47
2023-04-19T11:13:42.808Z,5.64
2023-04-19T11:14:42.729Z,6.70
2023-04-19T11:15:43.596Z,6.37
2023-04-19T11:16:46.064Z,6.88
2023-04-19T11:17:42.936Z,6.63
2023-04-19T11:18:42.825Z,6.07
2023-04-19T11:19:42.765Z,6.65
2023-04-19T11:20:42.872Z,5.87
2023-04-19T11:21:42.828Z,5.95
2023-04-19T11:22:42.750Z,6.37
2023-04-19T11:23:42.767Z,6.89
2023-04-19T11:24:42.922Z,6.64
2023-04-19T11:25:42.765Z,6.55
2023-04-19T11:26:43.492Z,6.02
2023-04-19T11:27:43.237Z,7.10
2023-04-19T11:28:43.211Z,6.85
2023-04-19T11:29:43.346Z,7.18
2023-04-19T11:30:43.376Z,6.36
2023-04-19T11:31:43.058Z,6.79
2023-04-19T11:32:43.142Z,6.86
2023-04-19T11:33:42.966Z,6.06
2023-04-19T11:34:43.043Z,6.33
2023-04-19T11:35:44.121Z,5.91
2023-04-19T11:36:43.070Z,6.08
2023-04-19T11:37:43.206Z,6.96
2023-04-19T11:38:43.125Z,6.14
2023-04-19T11:39:43.156Z,7.13
2023-04-19T11:40:43.120Z,6.93
2023-04-19T11:41:43.132Z,5.33
2023-04-19T11:42:43.203Z,5.60
2023-04-19T11:43:43.101Z,5.79
2023-04-19T11:44:44.010Z,6.01
2023-04-19T11:45:43.168Z,5.69
2023-04-19T11:46:43.247Z,5.64
2023-04-19T11:47:43.306Z,6.04
2023-04-19T11:48:43.265Z,6.08
2023-04-19T11:49:43.330Z,5.35
2023-04-19T11:50:43.975Z,5.31
2023-04-19T11:51:43.570Z,5.73
2023-04-19T11:52:43.475Z,6.08
2023-04-19T11:53:43.423Z,6.70
2023-04-19T11:54:43.504Z,5.53
2023-04-19T11:55:43.530Z,5.87
2023-04-19T11:56:43.585Z,6.19
2023-04-19T11:57:43.704Z,5.52
2023-04-19T11:58:43.822Z,5.75
2023-04-19T11:59:43.744Z,6.01
2023-04-19T12:00:43.750Z,5.80
2023-04-19T12:01:43.825Z,5.64
2023-04-19T12:02:44.000Z,5.92
2023-04-19T12:03:44.170Z,5.78
2023-04-19T12:04:44.132Z,5.75
2023-04-19T12:05:44.137Z,6.03
2023-04-19T12:06:43.980Z,5.22
2023-04-19T12:07:44.027Z,5.65
2023-04-19T12:08:44.127Z,4.97
2023-04-19T12:09:44.089Z,4.62
2023-04-19T12:10:44.156Z,4.59
2023-04-19T12:11:44.225Z,4.68
2023-04-19T12:12:44.270Z,5.20
2023-04-19T12:13:44.691Z,5.75
2023-04-19T12:14:44.362Z,5.33
2023-04-19T12:15:44.478Z,5.14
2023-04-19T12:16:44.524Z,5.36
2023-04-19T12:17:54.632Z,5.57
2023-04-19T12:18:45.589Z,10.75
2023-04-19T12:19:44.516Z,6.51
2023-04-19T12:20:44.585Z,5.10
2023-04-19T12:21:44.486Z,5.34
2023-04-19T12:22:44.443Z,5.06
2023-04-19T12:23:44.502Z,5.01
2023-04-19T12:24:44.505Z,5.36
2023-04-19T12:25:44.455Z,5.27
2023-04-19T12:26:44.470Z,6.21
2023-04-19T12:27:44.438Z,5.19
2023-04-19T12:28:44.519Z,5.97
2023-04-19T12:29:44.440Z,5.73
2023-04-19T12:30:44.508Z,6.09
2023-04-19T12:31:44.594Z,6.41
2023-04-19T12:32:44.595Z,6.32
2023-04-19T12:33:44.590Z,6.98
2023-04-19T12:34:44.542Z,6.93
2023-04-19T12:35:44.912Z,6.89
2023-04-19T12:36:44.610Z,6.45
2023-04-19T12:37:44.649Z,6.40
2023-04-19T12:38:44.777Z,6.05
2023-04-19T12:39:44.718Z,6.30
2023-04-19T12:40:44.737Z,5.77
2023-04-19T12:41:45.519Z,6.84
2023-04-19T12:42:44.811Z,6.56
2023-04-19T12:43:45.188Z,6.79
2023-04-19T12:44:44.949Z,6.07
2023-04-19T12:45:45.087Z,6.98
2023-04-19T12:46:45.041Z,7.18
2023-04-19T12:47:45.081Z,6.22
2023-04-19T12:48:45.132Z,6.74
2023-04-19T12:49:45.103Z,6.85
2023-04-19T12:50:45.178Z,6.54
2023-04-19T12:51:45.218Z,6.53
2023-04-19T12:52:45.246Z,6.88
2023-04-19T12:53:45.262Z,5.39
2023-04-19T12:54:45.315Z,5.91
2023-04-19T12:55:45.341Z,6.48
2023-04-19T12:56:45.446Z,6.23
2023-04-19T12:57:45.414Z,6.89
2023-04-19T12:58:45.780Z,6.95
2023-04-19T12:59:45.480Z,6.57
2023-04-19T13:00:45.597Z,7.32
2023-04-19T13:01:45.663Z,10.63
2023-04-19T13:02:45.696Z,8.57
2023-04-19T13:03:45.851Z,6.91
2023-04-19T13:04:45.885Z,7.00
2023-04-19T13:05:45.783Z,6.11
2023-04-19T13:06:45.739Z,6.17
2023-04-19T13:07:45.830Z,6.42
2023-04-19T13:08:47.830Z,7.17
2023-04-19T13:09:45.858Z,6.61
2023-04-19T13:10:45.868Z,6.73
2023-04-19T13:11:45.898Z,6.32
2023-04-19T13:12:45.898Z,6.35
2023-04-19T13:13:46.695Z,6.05
2023-04-19T13:14:46.088Z,6.22
2023-04-19T13:15:46.044Z,6.09
2023-04-19T13:16:46.065Z,6.70
2023-04-19T13:17:46.128Z,6.84
2023-04-19T13:18:46.093Z,6.31
2023-04-19T13:19:46.064Z,7.14
2023-04-19T13:20:46.131Z,6.84
2023-04-19T13:21:46.306Z,6.14
2023-04-19T13:22:46.045Z,6.74
2023-04-19T13:23:46.263Z,6.90
2023-04-19T13:24:46.049Z,6.42